sensor_id;sensor_type;location;lat;lon;timestamp;P1;durP1;ratioP1;P2;durP2;ratioP2
37917;SDS011;23749;51.410;21.130;2022-10-16T00:03:04;24.30;;;17.60;;
37917;SDS011;23749;51.410;21.130;2022-10-16T00:06:16;21.93;;;17.33;;
37917;SDS011;23749;51.410;21.130;2022-10-16T00:09:26;19.63;;;16.10;;
37917;SDS011;23749;51.410;21.130;2022-10-16T00:12:36;19.30;;;16.07;;
37917;SDS011;23749;51.410;21.130;2022-10-16T00:15:47;21.47;;;16.50;;
37917;SDS011;23749;51.410;21.130;2022-10-16T00:18:58;18.30;;;15.73;;
37917;SDS011;23749;51.410;21.130;2022-10-16T00:22:08;20.63;;;15.60;;
37917;SDS011;23749;51.410;21.130;2022-10-16T00:25:18;18.93;;;16.00;;
37917;SDS011;23749;51.410;21.130;2022-10-16T00:28:29;18.50;;;15.37;;
37917;SDS011;23749;51.410;21.130;2022-10-16T00:31:39;18.97;;;15.50;;
37917;SDS011;23749;51.410;21.130;2022-10-16T00:34:49;18.00;;;16.10;;
37917;SDS011;23749;51.410;21.130;2022-10-16T00:38:00;18.67;;;15.37;;
37917;SDS011;23749;51.410;21.130;2022-10-16T00:41:11;19.30;;;14.87;;
37917;SDS011;23749;51.410;21.130;2022-10-16T00:48:11;20.00;;;14.57;;
37917;SDS011;23749;51.410;21.130;2022-10-16T00:51:25;17.93;;;14.80;;
37917;SDS011;23749;51.410;21.130;2022-10-16T00:54:38;17.97;;;14.90;;
37917;SDS011;23749;51.410;21.130;2022-10-16T00:57:48;17.27;;;14.73;;
37917;SDS011;23749;51.410;21.130;2022-10-16T01:00:59;17.17;;;14.43;;
37917;SDS011;23749;51.410;21.130;2022-10-16T01:04:09;17.00;;;14.93;;
37917;SDS011;23749;51.410;21.130;2022-10-16T01:07:43;19.57;;;14.80;;
37917;SDS011;23749;51.410;21.130;2022-10-16T01:10:52;17.03;;;13.73;;
37917;SDS011;23749;51.410;21.130;2022-10-16T01:14:11;16.93;;;14.27;;
37917;SDS011;23749;51.410;21.130;2022-10-16T01:21:06;16.67;;;14.63;;
37917;SDS011;23749;51.410;21.130;2022-10-16T01:27:32;16.73;;;13.97;;
37917;SDS011;23749;51.410;21.130;2022-10-16T01:30:46;15.77;;;13.93;;
37917;SDS011;23749;51.410;21.130;2022-10-16T01:33:59;17.40;;;14.00;;
37917;SDS011;23749;51.410;21.130;2022-10-16T01:37:12;15.87;;;13.83;;
37917;SDS011;23749;51.410;21.130;2022-10-16T01:40:24;17.13;;;14.77;;
37917;SDS011;23749;51.410;21.130;2022-10-16T01:43:40;16.63;;;14.83;;
37917;SDS011;23749;51.410;21.130;2022-10-16T01:46:52;18.43;;;13.73;;
37917;SDS011;23749;51.410;21.130;2022-10-16T01:50:04;16.77;;;14.50;;
37917;SDS011;23749;51.410;21.130;2022-10-16T01:53:15;17.10;;;14.33;;
37917;SDS011;23749;51.410;21.130;2022-10-16T01:56:26;17.43;;;14.30;;
37917;SDS011;23749;51.410;21.130;2022-10-16T01:59:38;17.67;;;15.13;;
37917;SDS011;23749;51.410;21.130;2022-10-16T02:02:51;15.87;;;13.87;;
37917;SDS011;23749;51.410;21.130;2022-10-16T02:06:02;16.90;;;14.17;;
37917;SDS011;23749;51.410;21.130;2022-10-16T02:09:13;16.13;;;14.00;;
37917;SDS011;23749;51.410;21.130;2022-10-16T02:12:28;16.77;;;14.13;;
37917;SDS011;23749;51.410;21.130;2022-10-16T02:15:38;16.50;;;14.27;;
37917;SDS011;23749;51.410;21.130;2022-10-16T02:18:49;16.83;;;14.50;;
37917;SDS011;23749;51.410;21.130;2022-10-16T02:22:00;17.00;;;13.80;;
37917;SDS011;23749;51.410;21.130;2022-10-16T02:25:15;16.33;;;14.63;;
37917;SDS011;23749;51.410;21.130;2022-10-16T02:28:30;18.70;;;13.73;;
37917;SDS011;23749;51.410;21.130;2022-10-16T02:31:41;16.40;;;12.93;;
37917;SDS011;23749;51.410;21.130;2022-10-16T02:34:55;17.73;;;14.27;;
37917;SDS011;23749;51.410;21.130;2022-10-16T02:38:06;18.47;;;14.00;;
37917;SDS011;23749;51.410;21.130;2022-10-16T02:41:17;17.07;;;14.13;;
37917;SDS011;23749;51.410;21.130;2022-10-16T02:44:28;14.10;;;12.60;;
37917;SDS011;23749;51.410;21.130;2022-10-16T02:47:38;17.30;;;13.07;;
37917;SDS011;23749;51.410;21.130;2022-10-16T02:50:49;15.33;;;12.93;;
37917;SDS011;23749;51.410;21.130;2022-10-16T02:53:59;16.70;;;13.40;;
37917;SDS011;23749;51.410;21.130;2022-10-16T02:57:09;16.97;;;14.27;;
37917;SDS011;23749;51.410;21.130;2022-10-16T03:00:20;15.63;;;13.30;;
37917;SDS011;23749;51.410;21.130;2022-10-16T03:03:30;16.93;;;14.27;;
37917;SDS011;23749;51.410;21.130;2022-10-16T03:06:41;14.27;;;12.77;;
37917;SDS011;23749;51.410;21.130;2022-10-16T03:09:51;14.03;;;12.23;;
37917;SDS011;23749;51.410;21.130;2022-10-16T03:13:01;16.17;;;13.13;;
37917;SDS011;23749;51.410;21.130;2022-10-16T03:16:12;15.47;;;13.47;;
37917;SDS011;23749;51.410;21.130;2022-10-16T03:19:23;17.50;;;13.23;;
37917;SDS011;23749;51.410;21.130;2022-10-16T03:22:34;15.73;;;13.93;;
37917;SDS011;23749;51.410;21.130;2022-10-16T03:25:44;18.03;;;13.60;;
37917;SDS011;23749;51.410;21.130;2022-10-16T03:28:55;15.47;;;13.00;;
37917;SDS011;23749;51.410;21.130;2022-10-16T03:32:05;15.40;;;12.83;;
37917;SDS011;23749;51.410;21.130;2022-10-16T03:35:15;15.80;;;12.57;;
37917;SDS011;23749;51.410;21.130;2022-10-16T03:38:26;16.63;;;13.00;;
37917;SDS011;23749;51.410;21.130;2022-10-16T03:41:36;15.00;;;13.33;;
37917;SDS011;23749;51.410;21.130;2022-10-16T03:44:46;15.70;;;12.93;;
37917;SDS011;23749;51.410;21.130;2022-10-16T03:47:56;15.03;;;13.33;;
37917;SDS011;23749;51.410;21.130;2022-10-16T03:51:07;14.20;;;12.67;;
37917;SDS011;23749;51.410;21.130;2022-10-16T03:54:17;14.83;;;13.23;;
37917;SDS011;23749;51.410;21.130;2022-10-16T03:57:27;14.47;;;12.93;;
37917;SDS011;23749;51.410;21.130;2022-10-16T04:00:44;13.70;;;12.17;;
37917;SDS011;23749;51.410;21.130;2022-10-16T04:03:55;14.53;;;12.93;;
37917;SDS011;23749;51.410;21.130;2022-10-16T04:07:05;16.07;;;13.47;;
37917;SDS011;23749;51.410;21.130;2022-10-16T04:10:15;14.50;;;12.97;;
37917;SDS011;23749;51.410;21.130;2022-10-16T04:13:26;14.83;;;13.20;;
37917;SDS011;23749;51.410;21.130;2022-10-16T04:16:36;15.23;;;12.93;;
37917;SDS011;23749;51.410;21.130;2022-10-16T04:19:46;15.50;;;12.70;;
37917;SDS011;23749;51.410;21.130;2022-10-16T04:22:56;13.83;;;12.33;;
37917;SDS011;23749;51.410;21.130;2022-10-16T04:26:07;15.77;;;13.37;;
37917;SDS011;23749;51.410;21.130;2022-10-16T04:29:17;14.40;;;12.47;;
37917;SDS011;23749;51.410;21.130;2022-10-16T04:32:27;14.37;;;12.63;;
37917;SDS011;23749;51.410;21.130;2022-10-16T04:35:38;15.43;;;13.20;;
37917;SDS011;23749;51.410;21.130;2022-10-16T04:38:49;15.13;;;13.27;;
37917;SDS011;23749;51.410;21.130;2022-10-16T04:42:00;16.07;;;13.93;;
37917;SDS011;23749;51.410;21.130;2022-10-16T04:45:10;16.43;;;13.23;;
37917;SDS011;23749;51.410;21.130;2022-10-16T04:48:20;16.40;;;12.93;;
37917;SDS011;23749;51.410;21.130;2022-10-16T04:51:31;17.20;;;13.30;;
37917;SDS011;23749;51.410;21.130;2022-10-16T04:54:41;14.90;;;13.00;;
37917;SDS011;23749;51.410;21.130;2022-10-16T04:57:51;14.57;;;12.30;;
37917;SDS011;23749;51.410;21.130;2022-10-16T05:01:02;14.70;;;12.97;;
37917;SDS011;23749;51.410;21.130;2022-10-16T05:04:12;16.60;;;13.67;;
37917;SDS011;23749;51.410;21.130;2022-10-16T05:07:22;14.80;;;12.87;;
37917;SDS011;23749;51.410;21.130;2022-10-16T05:10:33;14.40;;;12.67;;
37917;SDS011;23749;51.410;21.130;2022-10-16T05:13:43;15.93;;;13.20;;
37917;SDS011;23749;51.410;21.130;2022-10-16T05:16:53;15.43;;;13.10;;
37917;SDS011;23749;51.410;21.130;2022-10-16T05:20:04;15.43;;;13.07;;
37917;SDS011;23749;51.410;21.130;2022-10-16T05:23:14;18.03;;;12.97;;
37917;SDS011;23749;51.410;21.130;2022-10-16T05:26:25;13.87;;;11.50;;
37917;SDS011;23749;51.410;21.130;2022-10-16T05:29:36;13.17;;;11.03;;
37917;SDS011;23749;51.410;21.130;2022-10-16T05:32:47;14.13;;;12.73;;
37917;SDS011;23749;51.410;21.130;2022-10-16T05:36:00;15.87;;;13.50;;
37917;SDS011;23749;51.410;21.130;2022-10-16T05:39:11;13.20;;;11.90;;
37917;SDS011;23749;51.410;21.130;2022-10-16T05:42:21;16.47;;;12.57;;
37917;SDS011;23749;51.410;21.130;2022-10-16T05:45:31;16.53;;;12.37;;
37917;SDS011;23749;51.410;21.130;2022-10-16T05:48:43;13.20;;;11.80;;
37917;SDS011;23749;51.410;21.130;2022-10-16T05:51:54;17.40;;;15.27;;
37917;SDS011;23749;51.410;21.130;2022-10-16T05:55:04;14.07;;;12.47;;
37917;SDS011;23749;51.410;21.130;2022-10-16T05:58:15;17.57;;;14.93;;
37917;SDS011;23749;51.410;21.130;2022-10-16T06:01:25;16.27;;;14.23;;
37917;SDS011;23749;51.410;21.130;2022-10-16T06:04:35;15.55;;;12.75;;
37917;SDS011;23749;51.410;21.130;2022-10-16T06:07:45;13.55;;;12.25;;
37917;SDS011;23749;51.410;21.130;2022-10-16T06:11:02;15.48;;;13.57;;
37917;SDS011;23749;51.410;21.130;2022-10-16T06:14:13;17.25;;;13.15;;
37917;SDS011;23749;51.410;21.130;2022-10-16T06:17:23;16.23;;;14.45;;
37917;SDS011;23749;51.410;21.130;2022-10-16T06:20:34;13.10;;;11.80;;
37917;SDS011;23749;51.410;21.130;2022-10-16T06:23:44;14.18;;;12.68;;
37917;SDS011;23749;51.410;21.130;2022-10-16T06:26:58;13.55;;;11.35;;
37917;SDS011;23749;51.410;21.130;2022-10-16T06:30:08;13.30;;;11.57;;
37917;SDS011;23749;51.410;21.130;2022-10-16T06:33:19;14.23;;;11.82;;
37917;SDS011;23749;51.410;21.130;2022-10-16T06:36:29;12.15;;;10.95;;
37917;SDS011;23749;51.410;21.130;2022-10-16T06:39:40;14.55;;;12.77;;
37917;SDS011;23749;51.410;21.130;2022-10-16T06:42:50;11.70;;;10.60;;
37917;SDS011;23749;51.410;21.130;2022-10-16T06:46:02;12.35;;;11.15;;
37917;SDS011;23749;51.410;21.130;2022-10-16T06:49:12;12.52;;;11.30;;
37917;SDS011;23749;51.410;21.130;2022-10-16T06:52:23;13.35;;;11.52;;
37917;SDS011;23749;51.410;21.130;2022-10-16T06:55:33;13.65;;;11.93;;
37917;SDS011;23749;51.410;21.130;2022-10-16T06:58:44;13.43;;;11.38;;
37917;SDS011;23749;51.410;21.130;2022-10-16T07:01:54;12.25;;;10.95;;
37917;SDS011;23749;51.410;21.130;2022-10-16T07:05:05;12.48;;;10.52;;
37917;SDS011;23749;51.410;21.130;2022-10-16T07:08:15;12.18;;;10.98;;
37917;SDS011;23749;51.410;21.130;2022-10-16T07:11:25;10.07;;;9.25;;
37917;SDS011;23749;51.410;21.130;2022-10-16T07:14:36;10.30;;;9.32;;
37917;SDS011;23749;51.410;21.130;2022-10-16T07:17:46;10.23;;;9.25;;
37917;SDS011;23749;51.410;21.130;2022-10-16T07:21:02;10.38;;;9.38;;
37917;SDS011;23749;51.410;21.130;2022-10-16T07:24:14;9.60;;;8.70;;
37917;SDS011;23749;51.410;21.130;2022-10-16T07:27:24;10.23;;;8.98;;
37917;SDS011;23749;51.410;21.130;2022-10-16T07:30:35;9.77;;;8.88;;
37917;SDS011;23749;51.410;21.130;2022-10-16T07:33:47;9.77;;;8.95;;
37917;SDS011;23749;51.410;21.130;2022-10-16T07:36:58;9.98;;;9.07;;
37917;SDS011;23749;51.410;21.130;2022-10-16T07:40:08;9.88;;;8.98;;
37917;SDS011;23749;51.410;21.130;2022-10-16T07:43:19;10.43;;;9.30;;
37917;SDS011;23749;51.410;21.130;2022-10-16T07:46:29;10.00;;;9.13;;
37917;SDS011;23749;51.410;21.130;2022-10-16T07:49:40;10.65;;;9.57;;
37917;SDS011;23749;51.410;21.130;2022-10-16T07:52:50;10.07;;;9.18;;
37917;SDS011;23749;51.410;21.130;2022-10-16T07:56:01;9.20;;;8.25;;
37917;SDS011;23749;51.410;21.130;2022-10-16T07:59:14;10.55;;;9.45;;
37917;SDS011;23749;51.410;21.130;2022-10-16T08:02:28;11.57;;;9.05;;
37917;SDS011;23749;51.410;21.130;2022-10-16T08:05:38;10.38;;;9.38;;
37917;SDS011;23749;51.410;21.130;2022-10-16T08:08:49;10.43;;;9.32;;
37917;SDS011;23749;51.410;21.130;2022-10-16T08:11:59;10.45;;;9.50;;
37917;SDS011;23749;51.410;21.130;2022-10-16T08:15:10;11.02;;;9.82;;
37917;SDS011;23749;51.410;21.130;2022-10-16T08:18:20;11.30;;;10.00;;
37917;SDS011;23749;51.410;21.130;2022-10-16T08:21:30;10.85;;;9.82;;
37917;SDS011;23749;51.410;21.130;2022-10-16T08:24:41;10.00;;;9.10;;
37917;SDS011;23749;51.410;21.130;2022-10-16T08:27:51;11.10;;;9.95;;
37917;SDS011;23749;51.410;21.130;2022-10-16T08:31:07;10.18;;;9.15;;
37917;SDS011;23749;51.410;21.130;2022-10-16T08:34:17;14.95;;;12.18;;
37917;SDS011;23749;51.410;21.130;2022-10-16T08:37:31;12.48;;;11.18;;
37917;SDS011;23749;51.410;21.130;2022-10-16T08:40:42;9.75;;;8.85;;
37917;SDS011;23749;51.410;21.130;2022-10-16T08:50:51;9.73;;;8.77;;
37917;SDS011;23749;51.410;21.130;2022-10-16T08:54:06;9.23;;;8.43;;
37917;SDS011;23749;51.410;21.130;2022-10-16T08:57:17;9.85;;;8.90;;
37917;SDS011;23749;51.410;21.130;2022-10-16T09:00:29;9.18;;;8.38;;
37917;SDS011;23749;51.410;21.130;2022-10-16T09:03:50;11.40;;;9.68;;
37917;SDS011;23749;51.410;21.130;2022-10-16T09:10:21;9.38;;;8.57;;
37917;SDS011;23749;51.410;21.130;2022-10-16T09:13:48;9.63;;;8.63;;
37917;SDS011;23749;51.410;21.130;2022-10-16T09:17:03;8.80;;;7.93;;
37917;SDS011;23749;51.410;21.130;2022-10-16T09:20:19;8.63;;;7.70;;
37917;SDS011;23749;51.410;21.130;2022-10-16T09:23:32;9.05;;;8.18;;
37917;SDS011;23749;51.410;21.130;2022-10-16T09:26:43;9.07;;;8.13;;
37917;SDS011;23749;51.410;21.130;2022-10-16T09:29:54;9.45;;;8.60;;
37917;SDS011;23749;51.410;21.130;2022-10-16T09:33:04;8.50;;;7.70;;
37917;SDS011;23749;51.410;21.130;2022-10-16T09:36:15;8.23;;;7.53;;
37917;SDS011;23749;51.410;21.130;2022-10-16T09:39:26;8.30;;;7.45;;
37917;SDS011;23749;51.410;21.130;2022-10-16T09:42:36;10.25;;;9.13;;
37917;SDS011;23749;51.410;21.130;2022-10-16T09:45:53;9.18;;;8.38;;
37917;SDS011;23749;51.410;21.130;2022-10-16T09:49:16;10.13;;;8.18;;
37917;SDS011;23749;51.410;21.130;2022-10-16T09:52:29;8.75;;;7.95;;
37917;SDS011;23749;51.410;21.130;2022-10-16T09:55:49;8.88;;;8.02;;
37917;SDS011;23749;51.410;21.130;2022-10-16T09:59:01;9.93;;;8.20;;
37917;SDS011;23749;51.410;21.130;2022-10-16T10:02:13;8.25;;;7.55;;
37917;SDS011;23749;51.410;21.130;2022-10-16T10:05:25;8.60;;;7.80;;
37917;SDS011;23749;51.410;21.130;2022-10-16T10:08:36;8.73;;;7.70;;
37917;SDS011;23749;51.410;21.130;2022-10-16T10:11:47;8.50;;;7.68;;
37917;SDS011;23749;51.410;21.130;2022-10-16T10:15:03;8.13;;;7.43;;
37917;SDS011;23749;51.410;21.130;2022-10-16T10:18:20;8.60;;;7.72;;
37917;SDS011;23749;51.410;21.130;2022-10-16T10:21:33;8.27;;;7.47;;
37917;SDS011;23749;51.410;21.130;2022-10-16T10:24:44;8.07;;;7.38;;
37917;SDS011;23749;51.410;21.130;2022-10-16T10:51:07;8.23;;;7.40;;
37917;SDS011;23749;51.410;21.130;2022-10-16T10:57:43;9.98;;;8.40;;
37917;SDS011;23749;51.410;21.130;2022-10-16T11:01:01;9.40;;;7.85;;
37917;SDS011;23749;51.410;21.130;2022-10-16T11:07:25;8.98;;;8.07;;
37917;SDS011;23749;51.410;21.130;2022-10-16T11:10:49;9.32;;;7.82;;
37917;SDS011;23749;51.410;21.130;2022-10-16T11:14:00;8.25;;;7.45;;
37917;SDS011;23749;51.410;21.130;2022-10-16T11:17:14;11.75;;;7.72;;
37917;SDS011;23749;51.410;21.130;2022-10-16T11:20:31;8.40;;;7.22;;
37917;SDS011;23749;51.410;21.130;2022-10-16T11:26:52;6.90;;;6.30;;
37917;SDS011;23749;51.410;21.130;2022-10-16T11:30:05;7.28;;;6.47;;
37917;SDS011;23749;51.410;21.130;2022-10-16T11:33:22;8.57;;;6.18;;
37917;SDS011;23749;51.410;21.130;2022-10-16T11:39:43;6.28;;;5.68;;
37917;SDS011;23749;51.410;21.130;2022-10-16T11:42:57;5.75;;;5.28;;
37917;SDS011;23749;51.410;21.130;2022-10-16T11:46:13;6.25;;;5.75;;
37917;SDS011;23749;51.410;21.130;2022-10-16T11:49:25;7.45;;;6.30;;
37917;SDS011;23749;51.410;21.130;2022-10-16T11:52:39;6.78;;;6.18;;
37917;SDS011;23749;51.410;21.130;2022-10-16T11:55:52;6.78;;;6.18;;
37917;SDS011;23749;51.410;21.130;2022-10-16T11:59:03;6.57;;;5.90;;
37917;SDS011;23749;51.410;21.130;2022-10-16T12:08:47;7.35;;;6.75;;
37917;SDS011;23749;51.410;21.130;2022-10-16T12:11:58;6.80;;;6.07;;
37917;SDS011;23749;51.410;21.130;2022-10-16T12:18:25;8.85;;;6.75;;
37917;SDS011;23749;51.410;21.130;2022-10-16T12:21:36;6.47;;;5.97;;
37917;SDS011;23749;51.410;21.130;2022-10-16T12:24:50;6.72;;;5.97;;
37917;SDS011;23749;51.410;21.130;2022-10-16T12:28:04;6.57;;;5.97;;
37917;SDS011;23749;51.410;21.130;2022-10-16T12:31:15;6.63;;;5.93;;
37917;SDS011;23749;51.410;21.130;2022-10-16T12:34:27;5.95;;;5.45;;
37917;SDS011;23749;51.410;21.130;2022-10-16T12:37:38;7.10;;;6.50;;
37917;SDS011;23749;51.410;21.130;2022-10-16T12:41:07;6.80;;;6.20;;
37917;SDS011;23749;51.410;21.130;2022-10-16T12:44:25;7.68;;;6.78;;
37917;SDS011;23749;51.410;21.130;2022-10-16T12:47:46;6.88;;;6.25;;
37917;SDS011;23749;51.410;21.130;2022-10-16T12:50:57;7.95;;;6.85;;
37917;SDS011;23749;51.410;21.130;2022-10-16T12:54:15;7.10;;;6.50;;
37917;SDS011;23749;51.410;21.130;2022-10-16T12:57:41;7.13;;;6.53;;
37917;SDS011;23749;51.410;21.130;2022-10-16T13:00:57;7.32;;;6.55;;
37917;SDS011;23749;51.410;21.130;2022-10-16T13:04:14;7.82;;;6.68;;
37917;SDS011;23749;51.410;21.130;2022-10-16T13:07:39;7.55;;;6.85;;
37917;SDS011;23749;51.410;21.130;2022-10-16T13:20:54;7.30;;;6.70;;
37917;SDS011;23749;51.410;21.130;2022-10-16T13:30:43;6.88;;;6.30;;
37917;SDS011;23749;51.410;21.130;2022-10-16T13:33:55;7.80;;;6.85;;
37917;SDS011;23749;51.410;21.130;2022-10-16T13:37:16;7.80;;;7.10;;
37917;SDS011;23749;51.410;21.130;2022-10-16T13:40:26;9.63;;;7.30;;
37917;SDS011;23749;51.410;21.130;2022-10-16T13:43:41;7.47;;;6.78;;
37917;SDS011;23749;51.410;21.130;2022-10-16T13:47:00;7.95;;;7.15;;
37917;SDS011;23749;51.410;21.130;2022-10-16T13:50:17;8.55;;;7.22;;
37917;SDS011;23749;51.410;21.130;2022-10-16T13:53:29;9.20;;;7.68;;
37917;SDS011;23749;51.410;21.130;2022-10-16T13:56:40;8.60;;;7.30;;
37917;SDS011;23749;51.410;21.130;2022-10-16T13:59:50;10.45;;;7.78;;
37917;SDS011;23749;51.410;21.130;2022-10-16T14:03:14;9.18;;;8.15;;
37917;SDS011;23749;51.410;21.130;2022-10-16T14:06:25;8.68;;;7.88;;
37917;SDS011;23749;51.410;21.130;2022-10-16T14:09:35;10.57;;;7.68;;
37917;SDS011;23749;51.410;21.130;2022-10-16T14:12:53;9.13;;;8.23;;
37917;SDS011;23749;51.410;21.130;2022-10-16T14:16:08;8.80;;;7.90;;
37917;SDS011;23749;51.410;21.130;2022-10-16T14:19:23;9.38;;;8.27;;
37917;SDS011;23749;51.410;21.130;2022-10-16T14:22:40;9.23;;;8.32;;
37917;SDS011;23749;51.410;21.130;2022-10-16T14:25:51;8.77;;;8.00;;
37917;SDS011;23749;51.410;21.130;2022-10-16T14:29:04;8.75;;;7.95;;
37917;SDS011;23749;51.410;21.130;2022-10-16T14:32:23;9.23;;;8.32;;
37917;SDS011;23749;51.410;21.130;2022-10-16T14:35:37;9.07;;;7.80;;
37917;SDS011;23749;51.410;21.130;2022-10-16T14:38:58;8.20;;;7.40;;
37917;SDS011;23749;51.410;21.130;2022-10-16T14:42:13;9.02;;;8.13;;
37917;SDS011;23749;51.410;21.130;2022-10-16T14:45:26;7.93;;;7.03;;
37917;SDS011;23749;51.410;21.130;2022-10-16T14:48:39;8.25;;;7.55;;
37917;SDS011;23749;51.410;21.130;2022-10-16T14:51:50;8.32;;;7.47;;
37917;SDS011;23749;51.410;21.130;2022-10-16T14:55:02;9.95;;;7.80;;
37917;SDS011;23749;51.410;21.130;2022-10-16T15:01:26;9.10;;;8.20;;
37917;SDS011;23749;51.410;21.130;2022-10-16T15:04:36;7.97;;;7.18;;
37917;SDS011;23749;51.410;21.130;2022-10-16T15:07:46;8.98;;;7.90;;
37917;SDS011;23749;51.410;21.130;2022-10-16T15:10:57;9.13;;;8.02;;
37917;SDS011;23749;51.410;21.130;2022-10-16T15:14:13;9.40;;;8.40;;
37917;SDS011;23749;51.410;21.130;2022-10-16T15:17:23;8.48;;;7.68;;
37917;SDS011;23749;51.410;21.130;2022-10-16T15:20:34;10.88;;;8.90;;
37917;SDS011;23749;51.410;21.130;2022-10-16T15:23:45;11.90;;;8.57;;
37917;SDS011;23749;51.410;21.130;2022-10-16T15:26:55;10.95;;;9.40;;
37917;SDS011;23749;51.410;21.130;2022-10-16T15:30:06;9.38;;;8.38;;
37917;SDS011;23749;51.410;21.130;2022-10-16T15:33:18;10.13;;;9.13;;
37917;SDS011;23749;51.410;21.130;2022-10-16T15:36:32;9.35;;;8.35;;
37917;SDS011;23749;51.410;21.130;2022-10-16T15:39:46;11.38;;;8.75;;
37917;SDS011;23749;51.410;21.130;2022-10-16T15:42:57;10.63;;;9.57;;
37917;SDS011;23749;51.410;21.130;2022-10-16T15:46:09;10.65;;;9.65;;
37917;SDS011;23749;51.410;21.130;2022-10-16T15:49:21;11.10;;;9.77;;
37917;SDS011;23749;51.410;21.130;2022-10-16T15:52:31;11.43;;;10.23;;
37917;SDS011;23749;51.410;21.130;2022-10-16T15:55:41;10.48;;;9.38;;
37917;SDS011;23749;51.410;21.130;2022-10-16T15:58:52;11.50;;;10.30;;
37917;SDS011;23749;51.410;21.130;2022-10-16T16:02:03;10.27;;;9.20;;
37917;SDS011;23749;51.410;21.130;2022-10-16T16:05:14;13.57;;;9.87;;
37917;SDS011;23749;51.410;21.130;2022-10-16T16:08:24;11.38;;;10.23;;
37917;SDS011;23749;51.410;21.130;2022-10-16T16:11:34;11.60;;;9.50;;
37917;SDS011;23749;51.410;21.130;2022-10-16T16:14:48;11.13;;;9.63;;
37917;SDS011;23749;51.410;21.130;2022-10-16T16:17:59;10.83;;;9.33;;
37917;SDS011;23749;51.410;21.130;2022-10-16T16:21:12;12.67;;;10.47;;
37917;SDS011;23749;51.410;21.130;2022-10-16T16:24:22;11.77;;;9.30;;
37917;SDS011;23749;51.410;21.130;2022-10-16T16:27:32;11.53;;;10.33;;
37917;SDS011;23749;51.410;21.130;2022-10-16T16:30:44;12.47;;;9.93;;
37917;SDS011;23749;51.410;21.130;2022-10-16T16:33:54;11.57;;;9.43;;
37917;SDS011;23749;51.410;21.130;2022-10-16T16:37:06;12.00;;;10.45;;
37917;SDS011;23749;51.410;21.130;2022-10-16T16:40:16;15.37;;;12.77;;
37917;SDS011;23749;51.410;21.130;2022-10-16T16:43:29;12.70;;;10.97;;
37917;SDS011;23749;51.410;21.130;2022-10-16T16:46:40;15.37;;;10.70;;
37917;SDS011;23749;51.410;21.130;2022-10-16T16:49:50;12.10;;;10.27;;
37917;SDS011;23749;51.410;21.130;2022-10-16T16:53:01;11.93;;;9.83;;
37917;SDS011;23749;51.410;21.130;2022-10-16T16:56:11;11.97;;;10.30;;
37917;SDS011;23749;51.410;21.130;2022-10-16T16:59:22;19.47;;;15.83;;
37917;SDS011;23749;51.410;21.130;2022-10-16T17:02:32;16.40;;;13.80;;
37917;SDS011;23749;51.410;21.130;2022-10-16T17:05:42;15.10;;;12.93;;
37917;SDS011;23749;51.410;21.130;2022-10-16T17:08:53;18.00;;;13.47;;
37917;SDS011;23749;51.410;21.130;2022-10-16T17:12:03;18.77;;;14.23;;
37917;SDS011;23749;51.410;21.130;2022-10-16T17:15:14;16.37;;;12.70;;
37917;SDS011;23749;51.410;21.130;2022-10-16T17:18:24;15.00;;;11.37;;
37917;SDS011;23749;51.410;21.130;2022-10-16T17:21:35;13.40;;;12.00;;
37917;SDS011;23749;51.410;21.130;2022-10-16T17:24:48;16.13;;;12.53;;
37917;SDS011;23749;51.410;21.130;2022-10-16T17:28:03;14.63;;;13.00;;
37917;SDS011;23749;51.410;21.130;2022-10-16T17:31:15;15.90;;;13.50;;
37917;SDS011;23749;51.410;21.130;2022-10-16T17:34:26;14.50;;;12.90;;
37917;SDS011;23749;51.410;21.130;2022-10-16T17:37:36;14.77;;;12.03;;
37917;SDS011;23749;51.410;21.130;2022-10-16T17:40:46;15.17;;;12.77;;
37917;SDS011;23749;51.410;21.130;2022-10-16T17:43:57;16.20;;;13.67;;
37917;SDS011;23749;51.410;21.130;2022-10-16T17:47:07;17.10;;;14.20;;
37917;SDS011;23749;51.410;21.130;2022-10-16T17:50:17;19.33;;;15.83;;
37917;SDS011;23749;51.410;21.130;2022-10-16T17:53:28;17.13;;;13.40;;
37917;SDS011;23749;51.410;21.130;2022-10-16T17:56:38;17.70;;;13.30;;
37917;SDS011;23749;51.410;21.130;2022-10-16T17:59:48;17.63;;;14.20;;
37917;SDS011;23749;51.410;21.130;2022-10-16T18:02:59;17.17;;;13.87;;
37917;SDS011;23749;51.410;21.130;2022-10-16T18:06:09;17.03;;;13.53;;
37917;SDS011;23749;51.410;21.130;2022-10-16T18:09:21;19.10;;;14.53;;
37917;SDS011;23749;51.410;21.130;2022-10-16T18:12:32;17.03;;;14.97;;
37917;SDS011;23749;51.410;21.130;2022-10-16T18:15:42;17.27;;;14.93;;
37917;SDS011;23749;51.410;21.130;2022-10-16T18:18:53;18.83;;;16.13;;
37917;SDS011;23749;51.410;21.130;2022-10-16T18:22:04;20.60;;;16.80;;
37917;SDS011;23749;51.410;21.130;2022-10-16T18:25:15;19.03;;;15.37;;
37917;SDS011;23749;51.410;21.130;2022-10-16T18:28:26;17.80;;;15.27;;
37917;SDS011;23749;51.410;21.130;2022-10-16T18:31:36;16.00;;;14.27;;
37917;SDS011;23749;51.410;21.130;2022-10-16T18:34:47;16.17;;;14.43;;
37917;SDS011;23749;51.410;21.130;2022-10-16T18:37:57;18.60;;;14.60;;
37917;SDS011;23749;51.410;21.130;2022-10-16T18:41:13;20.17;;;14.30;;
37917;SDS011;23749;51.410;21.130;2022-10-16T18:44:27;18.30;;;14.60;;
37917;SDS011;23749;51.410;21.130;2022-10-16T18:47:40;16.77;;;14.67;;
37917;SDS011;23749;51.410;21.130;2022-10-16T18:50:53;19.73;;;15.83;;
37917;SDS011;23749;51.410;21.130;2022-10-16T18:54:08;19.53;;;14.93;;
37917;SDS011;23749;51.410;21.130;2022-10-16T18:57:22;17.67;;;15.43;;
37917;SDS011;23749;51.410;21.130;2022-10-16T19:00:35;19.37;;;15.87;;
37917;SDS011;23749;51.410;21.130;2022-10-16T19:03:47;20.80;;;16.50;;
37917;SDS011;23749;51.410;21.130;2022-10-16T19:07:00;19.83;;;16.10;;
37917;SDS011;23749;51.410;21.130;2022-10-16T19:10:14;21.77;;;15.93;;
37917;SDS011;23749;51.410;21.130;2022-10-16T19:13:24;19.53;;;16.17;;
37917;SDS011;23749;51.410;21.130;2022-10-16T19:16:38;19.00;;;16.07;;
37917;SDS011;23749;51.410;21.130;2022-10-16T19:19:51;20.50;;;15.93;;
37917;SDS011;23749;51.410;21.130;2022-10-16T19:23:02;24.33;;;16.20;;
37917;SDS011;23749;51.410;21.130;2022-10-16T19:26:14;19.53;;;15.70;;
37917;SDS011;23749;51.410;21.130;2022-10-16T19:29:24;22.67;;;16.63;;
37917;SDS011;23749;51.410;21.130;2022-10-16T19:32:35;21.20;;;16.83;;
37917;SDS011;23749;51.410;21.130;2022-10-16T19:35:45;21.83;;;16.73;;
37917;SDS011;23749;51.410;21.130;2022-10-16T19:38:56;21.07;;;16.67;;
37917;SDS011;23749;51.410;21.130;2022-10-16T19:42:07;22.63;;;17.27;;
37917;SDS011;23749;51.410;21.130;2022-10-16T19:45:17;22.07;;;16.70;;
37917;SDS011;23749;51.410;21.130;2022-10-16T19:48:27;24.73;;;17.10;;
37917;SDS011;23749;51.410;21.130;2022-10-16T19:51:38;21.60;;;16.97;;
37917;SDS011;23749;51.410;21.130;2022-10-16T19:54:49;20.80;;;16.57;;
37917;SDS011;23749;51.410;21.130;2022-10-16T19:57:59;19.43;;;15.77;;
37917;SDS011;23749;51.410;21.130;2022-10-16T20:01:09;20.77;;;16.40;;
37917;SDS011;23749;51.410;21.130;2022-10-16T20:04:20;19.50;;;16.17;;
37917;SDS011;23749;51.410;21.130;2022-10-16T20:07:30;18.43;;;15.33;;